Time;durP1;ratioP1;P1;durP2;ratioP2;P2;SDS_P1;SDS_P2;PMS_P1;PMS_P2;Temp;Humidity;BMP_temperature;BMP_pressure;BME280_temperature;BME280_humidity;BME280_pressure;Samples;Min_cycle;Max_cycle;Signal;HPM_P1;HPM_P2
2020/12/17 00:01:23;;;;;;;24.35;11.70;;;7.70;99.90;;;;;;4988205;28;20030;-79
2020/12/17 00:03:48;;;;;;;22.67;11.90;;;7.60;99.90;;;;;;4984019;28;20057;-79
2020/12/17 00:06:14;;;;;;;20.88;11.60;;;7.70;99.90;;;;;;4987159;28;20109;-79
2020/12/17 00:08:40;;;;;;;22.80;11.57;;;7.70;99.90;;;;;;4988474;28;20026;-79
2020/12/17 00:11:05;;;;;;;24.02;11.57;;;7.70;99.90;;;;;;4989387;28;20034;-79
2020/12/17 00:13:31;;;;;;;23.67;11.88;;;7.80;99.90;;;;;;4988012;28;20076;-79
2020/12/17 00:15:56;;;;;;;24.45;12.65;;;7.70;99.90;;;;;;4988814;28;20076;-79
2020/12/17 00:18:25;;;;;;;24.85;11.80;;;7.70;99.90;;;;;;4988331;28;20129;-79
2020/12/17 00:20:50;;;;;;;23.92;11.00;;;7.80;99.90;;;;;;4988404;28;20029;-79
2020/12/17 00:23:16;;;;;;;24.67;11.77;;;7.80;99.90;;;;;;4988507;28;20030;-78
2020/12/17 00:25:41;;;;;;;22.15;11.80;;;7.70;99.90;;;;;;4980666;28;20501;-78
2020/12/17 00:28:07;;;;;;;25.80;11.48;;;7.70;99.90;;;;;;4978896;28;20019;-79
2020/12/17 00:30:32;;;;;;;19.80;11.23;;;7.60;99.90;;;;;;4987540;28;20034;-77
2020/12/17 00:32:58;;;;;;;23.98;11.40;;;7.60;99.90;;;;;;4985706;28;20117;-78
2020/12/17 00:35:23;;;;;;;20.83;11.23;;;7.60;99.90;;;;;;4975406;28;20498;-78
2020/12/17 00:37:49;;;;;;;20.50;11.93;;;7.60;99.90;;;;;;4995192;28;20025;-78
2020/12/17 00:40:15;;;;;;;20.25;10.82;;;7.60;99.90;;;;;;4990375;28;20035;-77
2020/12/17 00:42:45;;;;;;;26.30;13.07;;;7.60;99.90;;;;;;4988228;28;20023;-78
2020/12/17 00:45:12;;;;;;;26.40;11.52;;;7.50;99.90;;;;;;4987586;28;20104;-78
2020/12/17 00:47:37;;;;;;;22.30;11.38;;;7.50;99.90;;;;;;4981541;28;20662;-78
2020/12/17 00:50:08;;;;;;;21.67;11.48;;;7.50;99.90;;;;;;4986756;28;20034;-77
2020/12/17 00:52:38;;;;;;;21.50;11.75;;;7.50;99.90;;;;;;4988350;28;20505;-78
2020/12/17 00:55:04;;;;;;;25.75;11.70;;;7.50;99.90;;;;;;4989638;28;20134;-79
2020/12/17 00:57:30;;;;;;;22.25;11.75;;;7.60;99.90;;;;;;4994161;28;20057;-78
2020/12/17 00:59:55;;;;;;;21.80;10.80;;;7.60;99.90;;;;;;4987775;28;20517;-79
2020/12/17 01:02:21;;;;;;;23.45;12.07;;;7.60;99.90;;;;;;4984739;28;20062;-79
2020/12/17 01:04:47;;;;;;;23.33;11.13;;;7.50;99.90;;;;;;4985913;28;20057;-79
2020/12/17 01:07:12;;;;;;;24.63;12.65;;;7.50;99.90;;;;;;4986738;28;20054;-79
2020/12/17 01:09:38;;;;;;;20.33;10.73;;;7.60;99.90;;;;;;4988332;28;20031;-79
2020/12/17 01:12:08;;;;;;;24.15;10.80;;;7.50;99.90;;;;;;4988422;28;20034;-78
2020/12/17 01:14:34;;;;;;;20.50;11.55;;;7.50;99.90;;;;;;4988104;28;20046;-78
2020/12/17 01:17:01;;;;;;;23.08;11.50;;;7.50;99.90;;;;;;4984889;28;20031;-78
2020/12/17 01:19:27;;;;;;;22.67;11.95;;;7.50;99.90;;;;;;4978607;28;20189;-78
2020/12/17 01:21:53;;;;;;;23.65;11.45;;;7.50;99.90;;;;;;4984986;28;20096;-78
2020/12/17 01:24:18;;;;;;;22.27;11.63;;;7.50;99.90;;;;;;4987684;28;20125;-78
2020/12/17 01:26:44;;;;;;;24.55;11.90;;;7.50;99.90;;;;;;4986289;28;20168;-79
2020/12/17 01:29:09;;;;;;;23.20;11.65;;;7.50;99.90;;;;;;4980565;28;20042;-78
2020/12/17 01:31:35;;;;;;;22.42;11.30;;;7.50;99.90;;;;;;4987711;28;20121;-79
2020/12/17 01:34:00;;;;;;;24.05;11.95;;;7.60;99.90;;;;;;4992074;28;20033;-78
2020/12/17 01:36:26;;;;;;;20.10;11.30;;;7.50;99.90;;;;;;4993123;28;20431;-78
2020/12/17 01:38:51;;;;;;;20.67;11.38;;;7.50;99.90;;;;;;4987559;28;20031;-78
2020/12/17 01:41:17;;;;;;;20.70;11.02;;;7.50;99.90;;;;;;5004941;28;20551;-78
2020/12/17 01:43:44;;;;;;;22.67;11.18;;;7.50;99.90;;;;;;4991655;28;20071;-78
2020/12/17 01:46:12;;;;;;;22.98;11.20;;;7.50;99.90;;;;;;4982299;28;20109;-78
2020/12/17 01:48:39;;;;;;;21.25;10.88;;;7.50;99.90;;;;;;4981689;28;20038;-78
2020/12/17 01:51:06;;;;;;;20.88;11.38;;;7.50;99.90;;;;;;4989365;28;20044;-78
2020/12/17 01:53:40;;;;;;;20.92;11.73;;;7.50;99.90;;;;;;4989954;28;20061;-78
2020/12/17 01:56:12;;;;;;;18.58;10.90;;;7.50;99.90;;;;;;4990738;28;20084;-78
2020/12/17 01:58:44;;;;;;;22.35;11.07;;;7.40;99.90;;;;;;4991029;28;20030;-79
2020/12/17 02:01:12;;;;;;;23.17;10.88;;;7.30;99.90;;;;;;4991148;28;20030;-78
2020/12/17 02:03:39;;;;;;;18.85;10.45;;;7.30;99.90;;;;;;4990947;28;20046;-78
2020/12/17 02:06:05;;;;;;;25.25;11.60;;;7.30;99.90;;;;;;4996936;28;20080;-78
2020/12/17 02:08:37;;;;;;;22.95;12.23;;;7.20;99.90;;;;;;4990451;28;20053;-78
2020/12/17 02:11:04;;;;;;;21.75;11.13;;;7.10;99.90;;;;;;4989047;28;20034;-79
2020/12/17 02:13:33;;;;;;;23.02;11.93;;;7.10;99.90;;;;;;4990265;28;20034;-79
2020/12/17 02:16:01;;;;;;;22.98;11.98;;;7.10;99.90;;;;;;4988232;28;20085;-78
2020/12/17 02:18:27;;;;;;;22.50;11.55;;;6.90;99.90;;;;;;4986541;28;20038;-79
2020/12/17 02:20:53;;;;;;;21.90;10.98;;;6.90;99.90;;;;;;4992240;28;20563;-78
2020/12/17 02:23:19;;;;;;;23.15;11.07;;;6.90;99.90;;;;;;4990665;28;20036;-78
2020/12/17 02:25:45;;;;;;;20.48;11.80;;;6.80;99.90;;;;;;4989706;28;20027;-78
2020/12/17 02:28:10;;;;;;;23.55;11.65;;;6.80;99.90;;;;;;4989028;28;20433;-78
2020/12/17 02:30:35;;;;;;;21.17;11.20;;;6.80;99.90;;;;;;4988726;28;20536;-78
2020/12/17 02:33:01;;;;;;;21.42;11.75;;;6.80;99.90;;;;;;4990323;28;20026;-78
2020/12/17 02:35:26;;;;;;;25.23;12.82;;;6.80;99.90;;;;;;4989807;28;20085;-78
2020/12/17 02:37:52;;;;;;;24.10;12.30;;;6.80;99.90;;;;;;4989677;28;20569;-78
2020/12/17 02:40:17;;;;;;;24.73;12.55;;;6.80;99.90;;;;;;4985027;28;20026;-78
2020/12/17 02:42:43;;;;;;;20.73;11.57;;;6.70;99.90;;;;;;4977465;28;20034;-78
2020/12/17 02:45:08;;;;;;;22.50;12.05;;;6.70;99.90;;;;;;4989697;28;20327;-78
2020/12/17 02:47:33;;;;;;;21.33;10.73;;;6.70;99.90;;;;;;4990413;28;20026;-78
2020/12/17 02:49:59;;;;;;;24.90;12.30;;;6.80;99.90;;;;;;4989257;28;20389;-78
2020/12/17 02:52:24;;;;;;;23.23;12.50;;;6.70;99.90;;;;;;4987177;28;20100;-78
2020/12/17 02:54:50;;;;;;;21.80;11.50;;;6.70;99.90;;;;;;4990296;28;20426;-78
2020/12/17 02:57:16;;;;;;;21.58;12.23;;;6.60;99.90;;;;;;4989435;28;20030;-78
2020/12/17 02:59:41;;;;;;;22.42;11.98;;;6.70;99.90;;;;;;4983602;28;20569;-78
2020/12/17 03:02:07;;;;;;;25.58;12.60;;;6.70;99.90;;;;;;4987309;28;20374;-78
2020/12/17 03:04:32;;;;;;;22.38;12.15;;;6.50;99.90;;;;;;4979642;28;20520;-78
2020/12/17 03:06:58;;;;;;;22.27;11.55;;;6.60;99.90;;;;;;4988273;28;20083;-78
2020/12/17 03:09:23;;;;;;;25.30;12.75;;;6.60;99.90;;;;;;4980970;28;20109;-77
2020/12/17 03:11:49;;;;;;;22.13;11.98;;;6.50;99.90;;;;;;4989008;28;20030;-78
2020/12/17 03:14:14;;;;;;;22.15;11.48;;;6.50;99.90;;;;;;4990175;28;20627;-78
2020/12/17 03:16:39;;;;;;;22.95;12.63;;;6.50;99.90;;;;;;4989113;28;20022;-77
2020/12/17 03:19:05;;;;;;;29.60;13.43;;;6.50;99.90;;;;;;4983744;28;20034;-78
2020/12/17 03:21:31;;;;;;;25.73;12.55;;;6.40;99.90;;;;;;4984805;28;20034;-78
2020/12/17 03:23:56;;;;;;;24.27;12.23;;;6.40;99.90;;;;;;4989927;28;20567;-78
2020/12/17 03:26:21;;;;;;;22.73;12.13;;;6.40;99.90;;;;;;4986759;28;20034;-78
2020/12/17 03:28:47;;;;;;;26.10;13.00;;;6.40;99.90;;;;;;4989666;28;20465;-78
2020/12/17 03:31:14;;;;;;;28.33;13.40;;;6.30;99.90;;;;;;4985009;28;20038;-78
2020/12/17 03:33:39;;;;;;;23.25;12.20;;;6.40;99.90;;;;;;4980709;28;20030;-78
2020/12/17 03:36:05;;;;;;;26.08;12.95;;;6.40;99.90;;;;;;4987528;28;20030;-78
2020/12/17 03:38:30;;;;;;;23.63;12.00;;;6.30;99.90;;;;;;4987315;28;20054;-78
2020/12/17 03:40:56;;;;;;;29.48;13.18;;;6.20;99.90;;;;;;4993455;28;20026;-78
2020/12/17 03:43:21;;;;;;;25.13;12.55;;;6.30;99.90;;;;;;4983974;28;20026;-78
2020/12/17 03:45:46;;;;;;;24.75;12.38;;;6.30;99.90;;;;;;4988890;28;20118;-78
2020/12/17 03:48:12;;;;;;;23.58;12.60;;;6.30;99.90;;;;;;4985842;28;20385;-78
2020/12/17 03:50:37;;;;;;;24.20;12.52;;;6.30;99.90;;;;;;4986552;28;20026;-78
2020/12/17 03:53:03;;;;;;;26.85;13.23;;;6.20;99.90;;;;;;4987596;28;20054;-78
2020/12/17 03:55:29;;;;;;;27.40;12.63;;;6.20;99.90;;;;;;4988329;28;20433;-77
2020/12/17 03:57:54;;;;;;;27.50;13.75;;;6.20;99.90;;;;;;4991587;28;20113;-78
2020/12/17 04:00:20;;;;;;;25.55;12.73;;;6.20;99.90;;;;;;4990402;28;20034;-77
2020/12/17 04:02:45;;;;;;;25.95;12.68;;;6.20;99.90;;;;;;4987212;28;20110;-77
2020/12/17 04:05:10;;;;;;;28.90;13.02;;;6.20;99.90;;;;;;4986465;28;20545;-78
2020/12/17 04:07:36;;;;;;;26.95;13.25;;;6.30;99.90;;;;;;4987639;28;20049;-78
2020/12/17 04:10:02;;;;;;;28.02;13.15;;;6.20;99.90;;;;;;4987999;28;20154;-78
2020/12/17 04:12:27;;;;;;;24.98;12.98;;;6.20;99.90;;;;;;4986979;28;20041;-78
2020/12/17 04:14:53;;;;;;;26.30;13.25;;;6.20;99.90;;;;;;4988123;28;20502;-78
2020/12/17 04:17:18;;;;;;;26.13;12.75;;;6.20;99.90;;;;;;4982455;28;20042;-77
2020/12/17 04:19:43;;;;;;;24.50;13.05;;;6.10;99.90;;;;;;4985842;28;20141;-78
2020/12/17 04:22:16;;;;;;;27.73;13.77;;;6.00;99.90;;;;;;4981248;28;20382;-78
2020/12/17 04:24:42;;;;;;;28.48;13.93;;;6.00;99.90;;;;;;4983852;28;20123;-78
2020/12/17 04:27:08;;;;;;;26.65;13.20;;;6.00;99.90;;;;;;4983941;28;20023;-78
2020/12/17 04:29:33;;;;;;;30.58;13.90;;;6.00;99.90;;;;;;4984257;28;20169;-78
2020/12/17 04:31:59;;;;;;;28.55;13.10;;;6.00;99.90;;;;;;4985071;28;20022;-78
2020/12/17 04:34:24;;;;;;;28.67;13.93;;;6.00;99.90;;;;;;4991066;28;20055;-78
2020/12/17 04:36:49;;;;;;;27.90;14.73;;;6.00;99.90;;;;;;4988026;28;20034;-78
2020/12/17 04:39:15;;;;;;;26.70;13.02;;;6.00;99.90;;;;;;4984296;28;20145;-78
2020/12/17 04:41:42;;;;;;;26.52;13.57;;;6.00;99.90;;;;;;4991069;28;20122;-78
2020/12/17 04:44:08;;;;;;;26.70;13.70;;;6.00;99.90;;;;;;4987561;28;20116;-81
2020/12/17 04:46:35;;;;;;;29.58;13.98;;;5.90;99.90;;;;;;4981810;28;20666;-75
2020/12/17 04:49:03;;;;;;;21.30;12.73;;;5.90;99.90;;;;;;4982594;28;20122;-74
2020/12/17 04:51:29;;;;;;;24.83;12.68;;;5.90;99.90;;;;;;4986983;28;20038;-75
2020/12/17 04:54:00;;;;;;;24.27;13.05;;;5.90;99.90;;;;;;4980929;28;20065;-75
2020/12/17 04:56:27;;;;;;;26.03;13.13;;;5.90;99.90;;;;;;4987511;28;20093;-74
2020/12/17 04:58:58;;;;;;;28.80;14.27;;;5.80;99.90;;;;;;4988782;28;20117;-78
2020/12/17 05:01:26;;;;;;;;;;;5.70;99.90;;;;;;4984191;28;20026;-77
2020/12/17 05:03:53;;;;;;;29.48;13.20;;;5.80;99.90;;;;;;4987050;28;19964;-79
2020/12/17 05:06:21;;;;;;;28.58;14.15;;;5.80;99.90;;;;;;4985854;28;20062;-79
2020/12/17 05:08:47;;;;;;;28.73;14.32;;;5.70;99.90;;;;;;4980354;28;20015;-78
2020/12/17 05:11:14;;;;;;;29.75;14.38;;;5.80;99.90;;;;;;4978521;28;20081;-79
2020/12/17 05:13:39;;;;;;;27.50;13.25;;;5.80;99.90;;;;;;4989142;28;20047;-79
2020/12/17 05:16:05;;;;;;;29.10;14.25;;;5.80;99.90;;;;;;4991318;28;20038;-77
2020/12/17 05:18:31;;;;;;;30.17;14.05;;;5.80;99.90;;;;;;4990890;28;20139;-77
2020/12/17 05:20:56;;;;;;;30.33;14.02;;;5.80;99.90;;;;;;4989798;28;20034;-76
2020/12/17 05:23:23;;;;;;;29.90;13.88;;;5.80;99.90;;;;;;4993359;28;20026;-76
2020/12/17 05:25:52;;;;;;;26.50;13.15;;;5.80;99.90;;;;;;4992757;28;20058;-76
2020/12/17 05:28:17;;;;;;;26.88;13.68;;;5.70;99.90;;;;;;4989700;28;20031;-77
2020/12/17 05:30:43;;;;;;;30.55;13.70;;;5.70;99.90;;;;;;4991557;28;20109;-77
2020/12/17 05:33:08;;;;;;;28.40;13.80;;;5.60;99.90;;;;;;4992301;28;20023;-77
2020/12/17 05:35:35;;;;;;;30.33;14.43;;;5.60;99.90;;;;;;4988649;28;20026;-77
2020/12/17 05:38:06;;;;;;;29.00;14.05;;;5.60;99.90;;;;;;4988009;28;20090;-77
2020/12/17 05:40:40;;;;;;;25.52;13.48;;;5.60;99.90;;;;;;4985402;28;20041;-78
2020/12/17 05:43:06;;;;;;;29.85;15.07;;;5.60;99.90;;;;;;4988045;28;20026;-75
2020/12/17 05:45:32;;;;;;;30.35;14.85;;;5.70;99.90;;;;;;4991458;28;20032;-78
2020/12/17 05:48:27;;;;;;;28.23;14.68;;;5.70;99.90;;;;;;4992321;28;20042;-77
2020/12/17 05:50:58;;;;;;;25.65;13.15;;;5.60;99.90;;;;;;4979008;28;20034;-79
2020/12/17 05:53:25;;;;;;;31.17;14.30;;;5.60;99.90;;;;;;4979400;28;20031;-79
2020/12/17 05:55:59;;;;;;;32.08;14.38;;;5.60;99.90;;;;;;4994376;28;20153;-79
2020/12/17 05:58:36;;;;;;;29.27;14.45;;;5.60;99.90;;;;;;4993532;28;20114;-79
2020/12/17 06:01:12;;;;;;;29.10;14.02;;;5.50;99.90;;;;;;4989213;28;20109;-79
2020/12/17 06:03:40;;;;;;;28.08;13.90;;;5.60;99.90;;;;;;4986191;28;20694;-78
2020/12/17 06:06:07;;;;;;;30.80;14.45;;;5.60;99.90;;;;;;4985283;28;20169;-78
2020/12/17 06:08:41;;;;;;;29.63;13.85;;;5.50;99.90;;;;;;4997534;28;20431;-79
2020/12/17 06:11:08;;;;;;;27.83;14.32;;;5.60;99.90;;;;;;5001715;28;20099;-79
2020/12/17 06:13:39;;;;;;;33.17;14.85;;;5.60;99.90;;;;;;4998932;28;20022;-79
2020/12/17 06:16:06;;;;;;;34.00;13.80;;;5.50;99.90;;;;;;5001330;28;20050;-79
2020/12/17 06:18:47;;;;;;;29.48;14.15;;;5.60;99.90;;;;;;5004483;28;20033;-79
2020/12/17 06:21:12;;;;;;;31.08;14.15;;;5.50;99.90;;;;;;4996084;28;20037;-79
2020/12/17 06:23:38;;;;;;;30.00;14.95;;;5.60;99.90;;;;;;4996565;28;20033;-79
2020/12/17 06:26:09;;;;;;;29.55;14.63;;;5.50;99.90;;;;;;4995747;28;20034;-79
2020/12/17 06:28:46;;;;;;;27.30;14.55;;;5.50;99.90;;;;;;4997987;28;20026;-79
2020/12/17 06:31:25;;;;;;;29.88;14.85;;;5.40;99.90;;;;;;5004402;28;20029;-79
2020/12/17 06:33:54;;;;;;;28.73;14.57;;;5.50;99.90;;;;;;4991748;28;20117;-79
2020/12/17 06:36:28;;;;;;;30.33;14.43;;;5.50;99.90;;;;;;4999708;28;20030;-79
2020/12/17 06:38:54;;;;;;;28.92;14.20;;;5.50;99.90;;;;;;4996737;28;20062;-78
2020/12/17 06:41:23;;;;;;;31.08;14.48;;;5.50;99.90;;;;;;4999916;28;20085;-79
2020/12/17 06:43:49;;;;;;;29.08;13.95;;;5.50;99.90;;;;;;4998538;28;20026;-79
2020/12/17 06:46:36;;;;;;;33.53;15.45;;;5.40;99.90;;;;;;5000777;28;20384;-79
2020/12/17 06:49:04;;;;;;;29.95;13.90;;;5.30;99.90;;;;;;5002331;28;20037;-79
2020/12/17 06:51:32;;;;;;;28.38;14.55;;;5.40;99.90;;;;;;5002866;28;20428;-79
2020/12/17 06:53:59;;;;;;;34.45;15.70;;;5.40;99.90;;;;;;5001686;28;20223;-79
2020/12/17 06:56:24;;;;;;;31.58;14.82;;;5.40;99.90;;;;;;5001012;28;20358;-79
2020/12/17 06:59:14;;;;;;;32.28;15.60;;;5.30;99.90;;;;;;5000805;28;20038;-79
2020/12/17 07:01:39;;;;;;;30.95;15.10;;;5.20;99.90;;;;;;4999275;28;20053;-79
2020/12/17 07:04:05;;;;;;;33.50;15.45;;;5.40;99.90;;;;;;4984185;28;20389;-82
2020/12/17 07:06:30;;;;;;;38.72;15.43;;;5.30;99.90;;;;;;4979484;28;20109;-78
2020/12/17 07:08:58;;;;;;;34.83;15.18;;;5.30;99.90;;;;;;4987438;28;20069;-74
2020/12/17 07:11:43;;;;;;;34.00;15.65;;;5.50;99.90;;;;;;4988856;28;20151;-80
2020/12/17 07:14:27;;;;;;;28.95;14.48;;;5.50;99.90;;;;;;4990101;28;20027;-81
2020/12/17 07:16:55;;;;;;;29.20;14.35;;;5.50;99.90;;;;;;4986551;28;20549;-80
2020/12/17 07:19:23;;;;;;;31.40;14.50;;;5.50;99.90;;;;;;4989442;28;20060;-79
2020/12/17 07:21:51;;;;;;;29.83;14.75;;;5.50;99.90;;;;;;4985161;28;20084;-76
2020/12/17 07:24:28;;;;;;;30.30;14.52;;;5.60;99.90;;;;;;4984802;28;20378;-79
2020/12/17 07:27:00;;;;;;;30.95;14.43;;;5.60;99.90;;;;;;4992044;28;20026;-90
2020/12/17 07:29:36;;;;;;;26.50;13.35;;;5.70;99.90;;;;;;4990162;28;20183;-77
2020/12/17 07:32:21;;;;;;;28.65;13.40;;;5.80;99.90;;;;;;4985211;28;20054;-82
2020/12/17 07:34:48;;;;;;;28.40;13.25;;;5.80;99.90;;;;;;4986691;28;20034;-81
2020/12/17 07:37:32;;;;;;;29.73;14.18;;;5.80;99.90;;;;;;4984699;28;20533;-81
2020/12/17 07:39:59;;;;;;;26.63;13.85;;;5.90;99.90;;;;;;4989455;28;20113;-79
2020/12/17 07:42:26;;;;;;;28.05;14.00;;;5.90;99.90;;;;;;4987108;28;20054;-81
2020/12/17 07:44:52;;;;;;;25.90;13.20;;;5.90;99.90;;;;;;4979196;28;20023;-79
2020/12/17 07:47:21;;;;;;;27.48;13.90;;;5.90;99.90;;;;;;4984475;28;20042;-79
2020/12/17 07:49:47;;;;;;;27.10;13.10;;;6.00;99.90;;;;;;4988814;28;20037;-80
2020/12/17 07:52:32;;;;;;;25.42;13.10;;;6.00;99.90;;;;;;4989828;28;20018;-78
2020/12/17 07:54:59;;;;;;;29.02;13.68;;;6.10;99.90;;;;;;4986781;28;20033;-80
2020/12/17 07:57:25;;;;;;;29.38;14.43;;;6.10;99.90;;;;;;4987723;28;20030;-79
2020/12/17 07:59:50;;;;;;;28.30;14.13;;;6.10;99.90;;;;;;4987735;28;20580;-78
2020/12/17 08:02:16;;;;;;;25.40;12.60;;;6.20;99.90;;;;;;4988148;28;20046;-77
2020/12/17 08:04:48;;;;;;;31.10;13.60;;;6.20;99.90;;;;;;4987866;28;20875;-79
2020/12/17 08:07:14;;;;;;;26.80;13.18;;;6.20;99.90;;;;;;4989715;28;20035;-79
2020/12/17 08:09:41;;;;;;;28.25;13.00;;;6.20;99.90;;;;;;4984498;28;20030;-80
2020/12/17 08:12:15;;;;;;;29.95;13.20;;;6.20;99.90;;;;;;4985028;28;20478;-78
2020/12/17 08:14:40;;;;;;;74.93;33.40;;;6.20;99.90;;;;;;4982472;28;20026;-82
2020/12/17 08:17:09;;;;;;;37.95;18.90;;;6.20;99.90;;;;;;4988464;28;20033;-84
2020/12/17 08:19:35;;;;;;;29.98;14.07;;;6.20;99.90;;;;;;4987745;28;20019;-77
2020/12/17 08:22:02;;;;;;;25.98;12.55;;;6.20;99.90;;;;;;4987354;28;20064;-81
2020/12/17 08:24:28;;;;;;;41.30;21.52;;;6.20;99.90;;;;;;4985840;28;20239;-79
2020/12/17 08:26:54;;;;;;;33.63;16.13;;;6.20;99.90;;;;;;4983877;28;20045;-80
2020/12/17 08:29:22;;;;;;;27.88;14.02;;;6.30;99.90;;;;;;4987032;28;20061;-73
2020/12/17 08:31:48;;;;;;;26.70;13.75;;;6.40;99.90;;;;;;4981676;28;20442;-74
2020/12/17 08:34:14;;;;;;;24.27;11.77;;;6.40;99.90;;;;;;4987330;28;20101;-84
2020/12/17 08:36:39;;;;;;;24.23;12.43;;;6.40;99.90;;;;;;4979806;28;20101;-78
2020/12/17 08:39:10;;;;;;;26.38;12.98;;;6.40;99.90;;;;;;4974682;28;20034;-77
2020/12/17 08:42:08;;;;;;;27.15;12.80;;;6.40;99.90;;;;;;4973575;28;20560;-73
2020/12/17 08:44:36;;;;;;;27.13;13.32;;;6.50;99.90;;;;;;4970086;28;20030;-77
2020/12/17 08:47:07;;;;;;;25.77;12.30;;;6.40;99.90;;;;;;4966328;28;20080;-78
2020/12/17 08:49:33;;;;;;;27.30;12.60;;;6.50;99.90;;;;;;4976943;28;20100;-76
2020/12/17 08:51:59;;;;;;;24.30;11.93;;;6.50;99.90;;;;;;4972369;28;20509;-73
2020/12/17 08:54:32;;;;;;;24.73;12.27;;;6.60;99.90;;;;;;4980135;28;20030;-74
2020/12/17 08:56:59;;;;;;;23.73;12.40;;;6.60;99.90;;;;;;4978310;28;20031;-74
2020/12/17 08:59:24;;;;;;;27.17;12.60;;;6.60;99.90;;;;;;4979589;28;20172;-74
2020/12/17 09:01:50;;;;;;;25.27;13.07;;;6.70;99.90;;;;;;4980482;28;20600;-74
2020/12/17 09:04:16;;;;;;;27.85;12.35;;;6.80;99.90;;;;;;4979492;28;20053;-78
2020/12/17 09:06:49;;;;;;;23.17;11.88;;;6.80;99.90;;;;;;4978496;28;20014;-78
2020/12/17 09:09:28;;;;;;;25.17;11.55;;;6.80;99.90;;;;;;4981275;28;20045;-77
2020/12/17 09:11:55;;;;;;;22.83;11.80;;;6.90;99.90;;;;;;4979161;28;20480;-78
2020/12/17 09:14:30;;;;;;;24.33;12.10;;;7.00;99.90;;;;;;4977762;28;20030;-78
2020/12/17 09:17:14;;;;;;;21.85;11.18;;;7.00;99.90;;;;;;4981810;28;20062;-78
2020/12/17 09:19:40;;;;;;;23.30;11.50;;;6.90;99.90;;;;;;4975393;28;20038;-78
2020/12/17 09:22:05;;;;;;;22.13;11.25;;;6.90;99.90;;;;;;4977266;28;20030;-77
2020/12/17 09:24:38;;;;;;;24.92;11.70;;;6.90;99.90;;;;;;4975910;28;20037;-78
2020/12/17 09:27:27;;;;;;;30.02;11.55;;;7.00;99.90;;;;;;4979497;28;20708;-77
2020/12/17 09:30:18;;;;;;;23.17;12.27;;;7.00;99.90;;;;;;4985117;28;20069;-77
2020/12/17 09:33:00;;;;;;;24.05;11.90;;;7.10;99.90;;;;;;4979472;28;20092;-78
2020/12/17 09:35:33;;;;;;;28.20;12.43;;;7.10;99.90;;;;;;4978198;28;20026;-77
2020/12/17 09:38:08;;;;;;;24.90;11.68;;;7.20;99.90;;;;;;4972691;28;20100;-77
2020/12/17 09:40:37;;;;;;;25.52;11.90;;;7.20;99.90;;;;;;4981354;28;20033;-77
2020/12/17 09:43:06;;;;;;;25.92;12.02;;;7.10;99.90;;;;;;4970094;28;20019;-77
2020/12/17 09:45:38;;;;;;;23.33;11.27;;;7.20;99.90;;;;;;4974581;28;20478;-77
2020/12/17 09:48:16;;;;;;;23.33;11.20;;;7.10;99.90;;;;;;4971295;28;20022;-75
2020/12/17 09:51:08;;;;;;;21.63;10.65;;;7.10;99.90;;;;;;4974265;28;20038;-77
2020/12/17 09:53:38;;;;;;;25.02;11.35;;;7.20;99.90;;;;;;4974323;28;20093;-77
2020/12/17 09:56:08;;;;;;;26.40;11.98;;;7.10;99.90;;;;;;4985437;28;20493;-77
2020/12/17 09:58:33;;;;;;;27.50;11.60;;;7.20;99.90;;;;;;4984251;28;20569;-77
2020/12/17 10:00:59;;;;;;;23.02;10.45;;;7.20;99.90;;;;;;4980614;28;20133;-76
2020/12/17 10:03:24;;;;;;;28.40;11.23;;;7.20;99.90;;;;;;4979868;28;20113;-77
2020/12/17 10:05:50;;;;;;;22.17;11.00;;;7.30;99.90;;;;;;4985329;28;20034;-77
2020/12/17 10:08:16;;;;;;;24.05;10.88;;;7.40;99.90;;;;;;4985922;28;20026;-77
2020/12/17 10:10:42;;;;;;;22.90;11.45;;;7.50;99.90;;;;;;4981262;28;20030;-77
2020/12/17 10:13:09;;;;;;;21.08;10.38;;;7.50;99.90;;;;;;4978952;28;20030;-77
2020/12/17 10:15:35;;;;;;;22.88;10.98;;;7.40;99.90;;;;;;4981239;28;20054;-77
2020/12/17 10:18:01;;;;;;;23.95;10.73;;;7.40;99.90;;;;;;4982122;28;20037;-73
2020/12/17 10:20:26;;;;;;;22.00;11.05;;;7.50;99.90;;;;;;4979673;28;20038;-83
2020/12/17 10:22:52;;;;;;;24.23;11.07;;;7.50;99.90;;;;;;4978052;28;20022;-76
2020/12/17 10:25:19;;;;;;;23.10;11.15;;;7.50;99.90;;;;;;4977841;28;20026;-81
2020/12/17 10:27:45;;;;;;;20.30;10.60;;;7.60;99.90;;;;;;4980611;28;20426;-81
2020/12/17 10:30:11;;;;;;;24.50;11.68;;;7.60;99.90;;;;;;4982831;28;20121;-80
2020/12/17 10:32:41;;;;;;;22.48;10.98;;;7.70;99.90;;;;;;4983721;28;20096;-83
2020/12/17 10:35:07;;;;;;;20.95;11.18;;;7.70;99.90;;;;;;4977793;28;20113;-89
2020/12/17 10:37:33;;;;;;;22.52;10.93;;;7.90;99.90;;;;;;4991376;28;20437;-93
2020/12/17 10:40:03;;;;;;;24.10;11.13;;;7.80;99.90;;;;;;4989791;28;20152;-94
2020/12/17 10:42:28;;;;;;;23.55;11.43;;;7.90;99.90;;;;;;4992987;28;20498;-94
2020/12/17 10:44:55;;;;;;;21.88;10.43;;;8.00;99.90;;;;;;4987036;28;20023;-81
2020/12/17 10:47:20;;;;;;;18.35;8.88;;;8.10;99.90;;;;;;4971526;28;20041;-83
2020/12/17 10:49:46;;;;;;;21.92;10.60;;;8.10;99.90;;;;;;4985716;28;20026;-86
2020/12/17 10:52:12;;;;;;;22.33;11.40;;;8.30;99.90;;;;;;4980373;28;20030;-83
2020/12/17 10:54:38;;;;;;;21.33;11.38;;;8.30;99.90;;;;;;4981110;28;20555;-78
2020/12/17 10:57:03;;;;;;;25.50;11.38;;;8.20;99.90;;;;;;4984331;28;20034;-86
2020/12/17 10:59:29;;;;;;;21.77;11.15;;;8.40;99.90;;;;;;4985306;28;20030;-85
2020/12/17 11:01:58;;;;;;;25.92;12.32;;;8.40;99.90;;;;;;4978464;28;20801;-83
2020/12/17 11:04:24;;;;;;;25.77;10.70;;;8.40;99.90;;;;;;4984112;28;20818;-88
2020/12/17 11:06:54;;;;;;;20.42;10.82;;;8.60;99.90;;;;;;4983898;28;20108;-87
2020/12/17 11:09:19;;;;;;;22.55;11.95;;;8.70;99.90;;;;;;4978513;28;20108;-81
2020/12/17 11:11:44;;;;;;;21.35;10.35;;;8.90;99.90;;;;;;4984252;28;20120;-85
2020/12/17 11:14:10;;;;;;;27.63;11.20;;;8.90;99.90;;;;;;4979808;28;20034;-84
2020/12/17 11:16:35;;;;;;;19.73;9.90;;;9.00;99.80;;;;;;4988857;28;20028;-87
2020/12/17 11:19:01;;;;;;;18.88;10.30;;;9.10;99.40;;;;;;4977303;28;20050;-86
2020/12/17 11:21:26;;;;;;;24.80;11.32;;;9.30;99.00;;;;;;4982071;28;20081;-89
2020/12/17 11:23:52;;;;;;;19.80;9.90;;;9.60;98.20;;;;;;4978069;28;20069;-84
2020/12/17 11:26:17;;;;;;;20.88;10.13;;;9.70;97.40;;;;;;4981580;28;20042;-85
2020/12/17 11:28:43;;;;;;;19.80;10.40;;;9.60;97.20;;;;;;4985098;28;20389;-81
2020/12/17 11:31:08;;;;;;;18.88;10.60;;;9.40;97.50;;;;;;4981838;28;20174;-78
2020/12/17 11:33:34;;;;;;;20.40;10.52;;;9.30;98.00;;;;;;4977756;28;20030;-77
2020/12/17 11:36:00;;;;;;;23.30;10.77;;;9.20;98.40;;;;;;4984585;28;20130;-77
2020/12/17 11:38:25;;;;;;;20.63;10.55;;;9.10;98.80;;;;;;4986643;28;20588;-77
2020/12/17 11:40:52;;;;;;;19.08;10.32;;;9.00;99.30;;;;;;4991456;28;20134;-76
2020/12/17 11:43:17;;;;;;;18.52;9.57;;;9.00;99.20;;;;;;4971551;28;20153;-76
2020/12/17 11:45:43;;;;;;;19.52;9.70;;;9.20;98.80;;;;;;4984615;28;20114;-76
2020/12/17 11:48:08;;;;;;;19.20;9.02;;;9.40;98.60;;;;;;4986847;28;20093;-76
2020/12/17 11:50:35;;;;;;;16.80;9.45;;;9.50;98.00;;;;;;4979532;28;20775;-76
2020/12/17 11:53:00;;;;;;;16.52;9.35;;;9.50;97.50;;;;;;4974978;28;20035;-76
2020/12/17 11:55:26;;;;;;;17.85;9.30;;;9.50;97.70;;;;;;4986652;28;20029;-77
2020/12/17 11:57:51;;;;;;;19.13;10.20;;;9.60;98.50;;;;;;4979133;28;20033;-76
2020/12/17 12:00:17;;;;;;;17.85;9.20;;;9.80;97.50;;;;;;4983109;28;20030;-76
2020/12/17 12:02:42;;;;;;;17.73;9.15;;;9.80;96.90;;;;;;4977511;28;20118;-76
2020/12/17 12:05:09;;;;;;;16.23;8.95;;;9.90;96.60;;;;;;4975098;28;20050;-76
2020/12/17 12:07:34;;;;;;;16.85;8.10;;;9.80;96.10;;;;;;4975507;28;20121;-87
2020/12/17 12:10:02;;;;;;;19.30;8.75;;;9.80;96.30;;;;;;4977928;28;20118;-77
2020/12/17 12:12:28;;;;;;;16.05;8.23;;;9.60;96.40;;;;;;4971662;28;20030;-81
2020/12/17 12:14:54;;;;;;;15.32;8.00;;;9.60;96.80;;;;;;4977076;28;20087;-82
2020/12/17 12:17:19;;;;;;;13.90;8.13;;;9.70;96.90;;;;;;4981557;28;20054;-81
2020/12/17 12:19:44;;;;;;;12.13;6.63;;;9.70;97.00;;;;;;4980482;28;20030;-82
2020/12/17 12:22:10;;;;;;;21.20;8.55;;;9.70;96.50;;;;;;4979845;28;20034;-82
2020/12/17 12:24:36;;;;;;;14.40;7.85;;;9.90;96.40;;;;;;4979738;28;20026;-81
2020/12/17 12:27:01;;;;;;;16.13;7.38;;;10.00;96.00;;;;;;4980698;28;20036;-81
2020/12/17 12:29:27;;;;;;;13.70;7.10;;;9.90;95.60;;;;;;4979505;28;20396;-82
2020/12/17 12:31:53;;;;;;;15.00;7.70;;;10.00;95.70;;;;;;4980748;28;20705;-82
2020/12/17 12:34:19;;;;;;;17.30;8.18;;;10.20;95.60;;;;;;4980516;28;20111;-81
2020/12/17 12:36:49;;;;;;;14.30;7.78;;;10.30;94.80;;;;;;4981677;28;20485;-81
2020/12/17 12:39:15;;;;;;;14.27;7.37;;;10.30;94.60;;;;;;4981165;28;20037;-81
2020/12/17 12:41:41;;;;;;;13.48;7.40;;;10.40;94.50;;;;;;4981974;28;20845;-81